Weather reports worldwide

Advertisment
Passo Rolle, Italy (16021): temperature & dewpoint: 09.10.2019 20:00:00 - 15.10.2019 20:00:00 (CEST)Passo Rolle, Italy (16021): wind speed: 09.10.2019 20:00:00 - 15.10.2019 20:00:00 (CEST)Passo Rolle, Italy (16021): wind direction: 09.10.2019 20:00:00 - 15.10.2019 20:00:00 (CEST)Passo Rolle, Italy (16021): visibility: 09.10.2019 20:00:00 - 15.10.2019 20:00:00 (CEST)
Date & Time tt [°C] td [°C] ff [km/h] ff [kn] dd vv [km]
15.10.2019 20:00:00 - - - - - -
15.10.2019 19:00:00 - - - - - -
15.10.2019 18:00:00 - - - - - -
15.10.2019 17:00:00 - - - - - -
15.10.2019 16:00:00 - - - - - -
15.10.2019 15:00:00 - - - - - -
15.10.2019 14:00:00 - - - - - -
15.10.2019 13:00:00 - - - - - -
15.10.2019 12:00:00 6,0 6,0 11 6 S 0,3
15.10.2019 11:00:00 6,8 5,9 11 6 SSE 0,3
15.10.2019 10:00:00 7,0 7,0 22 12 SSE 0,8
15.10.2019 09:00:00 7,0 6,0 21 11 SE 0,8
15.10.2019 08:00:00 7,2 5,7 16 9 SSE 20
15.10.2019 07:00:00 7,0 5,0 15 8 SE 10
15.10.2019 06:00:00 - - - - - -
15.10.2019 05:00:00 6,8 5,6 11 6 SE 0,6
15.10.2019 04:00:00 - - - - - -
15.10.2019 03:00:00 - - - - - -
15.10.2019 02:00:00 6,4 5,2 4 2 WNW 0,3
15.10.2019 01:00:00 - - - - - -
15.10.2019 00:00:00 - - - - - -
14.10.2019 23:00:00 7,6 6,7 8 4 WNW 0,3
14.10.2019 22:00:00 - - - - - -
14.10.2019 21:00:00 - - - - - -
14.10.2019 20:00:00 7,8 6,9 5 3 N 10
14.10.2019 19:00:00 8,0 7,0 4 2 NW 0,1
14.10.2019 18:00:00 10,0 8,0 9 5 ESE 0,1
14.10.2019 17:00:00 11,0 7,3 16 9 SE 50
14.10.2019 16:00:00 13,0 3,0 18 10 ESE 10
14.10.2019 15:00:00 13,0 2,0 16 9 SE 10
14.10.2019 14:00:00 13,0 2,8 15 8 SSE 72
14.10.2019 13:00:00 13,0 1,0 18 10 SE 10
14.10.2019 12:00:00 13,0 0,0 16 9 SE 10
14.10.2019 11:00:00 11,8 0,6 15 8 ESE 72
14.10.2019 10:00:00 10,0 1,0 11 6 SE 10
14.10.2019 09:00:00 9,0 1,0 11 6 ESE 10
14.10.2019 08:00:00 9,0 0,2 13 7 ESE 50
14.10.2019 07:00:00 10,0 -2,0 11 6 ESE 10
14.10.2019 06:00:00 - - - - - -
14.10.2019 05:00:00 9,0 2,6 5 3 SSE 10
14.10.2019 04:00:00 - - - - - -
14.10.2019 03:00:00 - - - - - -
14.10.2019 02:00:00 9,0 2,1 4 2 S 10
14.10.2019 01:00:00 - - - - - -
14.10.2019 00:00:00 - - - - - -
13.10.2019 23:00:00 10,0 2,1 0 0 N 10
13.10.2019 22:00:00 - - - - - -
13.10.2019 21:00:00 - - - - - -
13.10.2019 20:00:00 8,2 5,3 8 4 W 10
13.10.2019 19:00:00 9,0 7,0 8 4 WSW 10
13.10.2019 18:00:00 9,0 7,0 5 3 NW 10
13.10.2019 17:00:00 10,8 7,1 8 4 NW 50
13.10.2019 16:00:00 12,0 7,0 15 8 SE 10
13.10.2019 15:00:00 12,0 2,0 18 10 SE 10
13.10.2019 14:00:00 13,0 0,7 13 7 SE 50
13.10.2019 13:00:00 13,0 -1,0 21 11 ESE 10
13.10.2019 12:00:00 13,0 -3,0 16 9 ESE 10
13.10.2019 11:00:00 11,4 -4,7 18 10 ESE 50
13.10.2019 10:00:00 11,0 -4,0 15 8 ESE 10
13.10.2019 09:00:00 9,0 -4,0 8 4 E 10
13.10.2019 08:00:00 9,2 0,6 5 3 E 50
13.10.2019 07:00:00 10,0 1,0 5 3 E 10
13.10.2019 06:00:00 - - - - - -
13.10.2019 05:00:00 9,0 1,2 8 4 N 20
13.10.2019 04:00:00 - - - - - -
13.10.2019 03:00:00 - - - - - -
13.10.2019 02:00:00 5,0 4,7 8 4 NW 20
13.10.2019 01:00:00 - - - - - -
13.10.2019 00:00:00 - - - - - -
12.10.2019 23:00:00 5,4 3,9 8 4 NW 15
12.10.2019 22:00:00 - - - - - -
12.10.2019 21:00:00 - - - - - -
12.10.2019 20:00:00 5,6 3,8 5 3 NNW 15
12.10.2019 19:00:00 6,0 3,0 4 2 NW 10
12.10.2019 18:00:00 8,0 5,0 4 2 SSW 10
12.10.2019 17:00:00 8,2 6,3 13 7 SE 30
12.10.2019 16:00:00 10,0 5,0 8 4 SE 10
12.10.2019 15:00:00 10,0 5,0 15 8 SE 10
12.10.2019 14:00:00 10,2 3,7 13 7 SE 50
12.10.2019 13:00:00 10,0 3,0 13 7 SE 10
12.10.2019 12:00:00 8,0 0,0 4 2 - 10
12.10.2019 11:00:00 9,0 -1,4 11 6 SE 50
12.10.2019 10:00:00 7,0 -1,0 5 3 SSE 10
12.10.2019 09:00:00 6,0 -5,0 4 2 NNE 10
12.10.2019 08:00:00 5,4 -1,7 4 2 N 50
12.10.2019 07:00:00 5,0 -4,0 5 3 NW 10
12.10.2019 06:00:00 - - - - - -
12.10.2019 05:00:00 5,0 2,4 4 2 WNW 20
12.10.2019 04:00:00 - - - - - -
12.10.2019 03:00:00 - - - - - -
12.10.2019 02:00:00 5,2 4,9 5 3 WNW 20
12.10.2019 01:00:00 - - - - - -
12.10.2019 00:00:00 - - - - - -
11.10.2019 23:00:00 5,0 4,7 4 2 N 20
11.10.2019 22:00:00 - - - - - -
11.10.2019 21:00:00 - - - - - -
11.10.2019 20:00:00 5,2 4,5 11 6 ESE 15
11.10.2019 19:00:00 6,0 5,0 11 6 ESE 10
11.10.2019 18:00:00 7,0 4,0 15 8 ESE 10
11.10.2019 17:00:00 8,0 4,2 15 8 SE 50
11.10.2019 16:00:00 9,0 3,0 15 8 SE 10
11.10.2019 15:00:00 9,0 3,0 16 9 SE 10
11.10.2019 14:00:00 9,0 2,8 18 10 SE 72
11.10.2019 13:00:00 8,0 2,0 15 8 ESE 10
11.10.2019 12:00:00 8,0 2,0 15 8 ESE 10
11.10.2019 11:00:00 6,8 2,5 18 10 ESE 72
11.10.2019 10:00:00 6,0 1,0 15 8 ESE 10
11.10.2019 09:00:00 4,0 1,0 13 7 ESE 10
11.10.2019 08:00:00 4,0 -3,5 11 6 ESE 72
11.10.2019 07:00:00 3,0 -3,0 11 6 E 10
11.10.2019 06:00:00 4,0 -6,0 4 2 ESE 10
11.10.2019 05:00:00 4,0 -2,0 8 4 ESE 20
11.10.2019 04:00:00 - - - - - -
11.10.2019 03:00:00 - - - - - -
11.10.2019 02:00:00 4,0 -4,5 2 1 NNW 20
11.10.2019 01:00:00 - - - - - -
11.10.2019 00:00:00 - - - - - -
10.10.2019 23:00:00 4,4 -3,6 4 2 N 10
10.10.2019 22:00:00 - - - - - -
10.10.2019 21:00:00 - - - - - -
10.10.2019 20:00:00 5,0 -4,5 5 3 WSW 10
10.10.2019 19:00:00 6,0 -5,0 2 1 WNW 10
10.10.2019 18:00:00 7,0 -6,0 11 6 NW 10
10.10.2019 17:00:00 7,8 -6,7 18 10 W 72
10.10.2019 16:00:00 8,0 -6,0 15 8 WSW 10
10.10.2019 15:00:00 8,0 -7,0 16 9 W 10
10.10.2019 14:00:00 7,8 -2,0 13 7 WNW 72
10.10.2019 13:00:00 8,0 1,0 15 8 WNW 10
10.10.2019 12:00:00 6,0 2,0 8 4 W 10
10.10.2019 11:00:00 6,0 4,2 5 3 W 72
10.10.2019 10:00:00 6,0 3,0 11 6 ESE 10
10.10.2019 09:00:00 4,0 2,0 13 7 ESE 10
10.10.2019 08:00:00 3,8 -1,2 9 5 ESE 72
10.10.2019 07:00:00 4,0 -3,0 8 4 ESE 10
10.10.2019 06:00:00 4,0 -3,0 8 4 NNW 10
10.10.2019 05:00:00 3,8 0,3 5 3 NNE 10
10.10.2019 04:00:00 - - - - - -
10.10.2019 03:00:00 - - - - - -
10.10.2019 02:00:00 4,0 3,3 5 3 NNW 0,1
10.10.2019 01:00:00 - - - - - -
10.10.2019 00:00:00 - - - - - -
09.10.2019 23:00:00 5,0 3,2 8 4 NW 0,1
09.10.2019 22:00:00 - - - - - -
09.10.2019 21:00:00 - - - - - -
09.10.2019 20:00:00 4,8 3,1 34 18 SSE 0,1

tt = temperature
td = dewpoint
ff = wind speed
dd = wind direction
vv = visibility

Next stations